sensor_id;sensor_type;location;lat;lon;timestamp;temperature;humidity
75738;DHT22;64356;45.638;13.764;2023-11-19T00:00:29;19.20;47.10
75738;DHT22;64356;45.638;13.764;2023-11-19T00:02:55;19.20;47.10
75738;DHT22;64356;45.638;13.764;2023-11-19T00:05:20;19.20;47.20
75738;DHT22;64356;45.638;13.764;2023-11-19T00:07:46;19.20;47.10
75738;DHT22;64356;45.638;13.764;2023-11-19T00:10:12;19.20;47.10
75738;DHT22;64356;45.638;13.764;2023-11-19T00:12:38;19.20;46.90
75738;DHT22;64356;45.638;13.764;2023-11-19T00:15:05;19.20;47.00
75738;DHT22;64356;45.638;13.764;2023-11-19T00:17:31;19.20;46.80
75738;DHT22;64356;45.638;13.764;2023-11-19T00:19:57;19.30;47.30
75738;DHT22;64356;45.638;13.764;2023-11-19T00:22:22;19.20;46.60
75738;DHT22;64356;45.638;13.764;2023-11-19T00:24:48;19.20;46.60
75738;DHT22;64356;45.638;13.764;2023-11-19T00:27:13;19.20;46.50
75738;DHT22;64356;45.638;13.764;2023-11-19T00:29:40;19.20;46.50
75738;DHT22;64356;45.638;13.764;2023-11-19T00:32:05;19.20;46.50
75738;DHT22;64356;45.638;13.764;2023-11-19T00:34:32;19.20;46.40
75738;DHT22;64356;45.638;13.764;2023-11-19T00:36:58;19.20;46.30
75738;DHT22;64356;45.638;13.764;2023-11-19T00:39:23;19.20;46.20
75738;DHT22;64356;45.638;13.764;2023-11-19T00:41:49;19.20;46.10
75738;DHT22;64356;45.638;13.764;2023-11-19T00:44:15;19.20;46.20
75738;DHT22;64356;45.638;13.764;2023-11-19T00:46:40;19.20;46.10
75738;DHT22;64356;45.638;13.764;2023-11-19T00:49:06;19.20;46.10
75738;DHT22;64356;45.638;13.764;2023-11-19T00:51:31;19.20;46.10
75738;DHT22;64356;45.638;13.764;2023-11-19T00:53:57;19.20;46.00
75738;DHT22;64356;45.638;13.764;2023-11-19T00:56:24;19.20;46.10
75738;DHT22;64356;45.638;13.764;2023-11-19T00:58:49;19.20;46.10
75738;DHT22;64356;45.638;13.764;2023-11-19T01:01:15;19.20;46.10
75738;DHT22;64356;45.638;13.764;2023-11-19T01:03:41;19.20;46.10
75738;DHT22;64356;45.638;13.764;2023-11-19T01:06:06;19.10;46.10
75738;DHT22;64356;45.638;13.764;2023-11-19T01:08:33;19.20;46.10
75738;DHT22;64356;45.638;13.764;2023-11-19T01:11:01;19.10;45.90
75738;DHT22;64356;45.638;13.764;2023-11-19T01:13:27;19.10;45.80
75738;DHT22;64356;45.638;13.764;2023-11-19T01:15:53;19.20;45.90
75738;DHT22;64356;45.638;13.764;2023-11-19T01:18:18;19.10;45.70
75738;DHT22;64356;45.638;13.764;2023-11-19T01:20:44;19.20;45.90
75738;DHT22;64356;45.638;13.764;2023-11-19T01:23:09;19.10;45.90
75738;DHT22;64356;45.638;13.764;2023-11-19T01:25:35;19.20;45.90
75738;DHT22;64356;45.638;13.764;2023-11-19T01:28:01;19.10;45.80
75738;DHT22;64356;45.638;13.764;2023-11-19T01:30:27;19.10;45.80
75738;DHT22;64356;45.638;13.764;2023-11-19T01:32:53;19.10;45.80
75738;DHT22;64356;45.638;13.764;2023-11-19T01:35:18;19.10;45.90
75738;DHT22;64356;45.638;13.764;2023-11-19T01:37:44;19.10;45.90
75738;DHT22;64356;45.638;13.764;2023-11-19T01:40:10;19.10;45.90
75738;DHT22;64356;45.638;13.764;2023-11-19T01:42:37;19.10;45.90
75738;DHT22;64356;45.638;13.764;2023-11-19T01:45:03;19.10;45.90
75738;DHT22;64356;45.638;13.764;2023-11-19T01:47:32;19.10;45.90
75738;DHT22;64356;45.638;13.764;2023-11-19T01:49:57;19.10;46.40
75738;DHT22;64356;45.638;13.764;2023-11-19T01:52:24;19.10;45.80
75738;DHT22;64356;45.638;13.764;2023-11-19T01:54:50;19.10;45.80
75738;DHT22;64356;45.638;13.764;2023-11-19T01:57:16;19.10;45.70
75738;DHT22;64356;45.638;13.764;2023-11-19T01:59:42;19.10;45.70
75738;DHT22;64356;45.638;13.764;2023-11-19T02:02:08;19.10;45.70
75738;DHT22;64356;45.638;13.764;2023-11-19T02:04:34;19.10;45.60
75738;DHT22;64356;45.638;13.764;2023-11-19T02:07:00;19.10;45.70
75738;DHT22;64356;45.638;13.764;2023-11-19T02:09:26;19.10;45.80
75738;DHT22;64356;45.638;13.764;2023-11-19T02:11:52;19.10;45.80
75738;DHT22;64356;45.638;13.764;2023-11-19T02:14:19;19.10;45.90
75738;DHT22;64356;45.638;13.764;2023-11-19T02:16:47;19.10;45.90
75738;DHT22;64356;45.638;13.764;2023-11-19T02:19:12;19.10;45.90
75738;DHT22;64356;45.638;13.764;2023-11-19T02:21:38;19.10;45.70
75738;DHT22;64356;45.638;13.764;2023-11-19T02:24:05;19.10;45.60
75738;DHT22;64356;45.638;13.764;2023-11-19T02:26:49;19.10;45.70
75738;DHT22;64356;45.638;13.764;2023-11-19T02:29:17;19.10;45.70
75738;DHT22;64356;45.638;13.764;2023-11-19T02:31:42;19.10;45.70
75738;DHT22;64356;45.638;13.764;2023-11-19T02:34:10;19.10;46.20
75738;DHT22;64356;45.638;13.764;2023-11-19T02:36:36;19.10;45.70
75738;DHT22;64356;45.638;13.764;2023-11-19T02:39:02;19.10;45.70
75738;DHT22;64356;45.638;13.764;2023-11-19T02:41:27;19.10;45.60
75738;DHT22;64356;45.638;13.764;2023-11-19T02:43:53;19.10;45.60
75738;DHT22;64356;45.638;13.764;2023-11-19T02:46:19;19.10;45.50
75738;DHT22;64356;45.638;13.764;2023-11-19T02:48:44;19.10;45.60
75738;DHT22;64356;45.638;13.764;2023-11-19T02:51:11;19.10;45.60
75738;DHT22;64356;45.638;13.764;2023-11-19T02:53:37;19.10;45.60
75738;DHT22;64356;45.638;13.764;2023-11-19T02:56:03;19.10;45.60
75738;DHT22;64356;45.638;13.764;2023-11-19T02:58:37;19.10;45.60
75738;DHT22;64356;45.638;13.764;2023-11-19T03:01:02;19.10;45.70
75738;DHT22;64356;45.638;13.764;2023-11-19T03:03:38;19.10;45.60
75738;DHT22;64356;45.638;13.764;2023-11-19T03:06:05;19.10;45.50
75738;DHT22;64356;45.638;13.764;2023-11-19T03:08:32;19.10;45.60
75738;DHT22;64356;45.638;13.764;2023-11-19T03:10:57;19.00;45.50
75738;DHT22;64356;45.638;13.764;2023-11-19T03:13:24;19.10;45.60
75738;DHT22;64356;45.638;13.764;2023-11-19T03:15:49;19.10;45.50
75738;DHT22;64356;45.638;13.764;2023-11-19T03:18:16;19.10;45.50
75738;DHT22;64356;45.638;13.764;2023-11-19T03:20:42;19.00;45.50
75738;DHT22;64356;45.638;13.764;2023-11-19T03:23:07;19.00;45.60
75738;DHT22;64356;45.638;13.764;2023-11-19T03:25:33;19.00;45.60
75738;DHT22;64356;45.638;13.764;2023-11-19T03:28:00;19.00;45.60
75738;DHT22;64356;45.638;13.764;2023-11-19T03:30:26;19.00;45.60
75738;DHT22;64356;45.638;13.764;2023-11-19T03:32:54;19.00;45.70
75738;DHT22;64356;45.638;13.764;2023-11-19T03:35:19;19.10;45.70
75738;DHT22;64356;45.638;13.764;2023-11-19T03:37:45;19.00;45.50
75738;DHT22;64356;45.638;13.764;2023-11-19T03:40:12;19.10;45.60
75738;DHT22;64356;45.638;13.764;2023-11-19T03:42:37;19.00;45.60
75738;DHT22;64356;45.638;13.764;2023-11-19T03:45:08;19.00;45.70
75738;DHT22;64356;45.638;13.764;2023-11-19T03:47:37;19.00;45.60
75738;DHT22;64356;45.638;13.764;2023-11-19T03:50:04;19.10;45.70
75738;DHT22;64356;45.638;13.764;2023-11-19T03:52:29;19.00;45.70
75738;DHT22;64356;45.638;13.764;2023-11-19T03:54:55;19.00;45.70
75738;DHT22;64356;45.638;13.764;2023-11-19T03:57:22;19.00;45.80
75738;DHT22;64356;45.638;13.764;2023-11-19T03:59:48;19.00;45.80
75738;DHT22;64356;45.638;13.764;2023-11-19T04:02:13;19.00;45.90
75738;DHT22;64356;45.638;13.764;2023-11-19T04:04:39;19.00;46.00
75738;DHT22;64356;45.638;13.764;2023-11-19T04:07:05;19.00;46.00
75738;DHT22;64356;45.638;13.764;2023-11-19T04:09:31;19.00;46.10
75738;DHT22;64356;45.638;13.764;2023-11-19T04:11:59;19.00;46.10
75738;DHT22;64356;45.638;13.764;2023-11-19T04:14:25;19.00;46.00
75738;DHT22;64356;45.638;13.764;2023-11-19T04:16:51;19.00;46.00
75738;DHT22;64356;45.638;13.764;2023-11-19T04:19:17;19.10;46.10
75738;DHT22;64356;45.638;13.764;2023-11-19T04:21:42;19.00;46.00
75738;DHT22;64356;45.638;13.764;2023-11-19T04:24:08;19.00;46.10
75738;DHT22;64356;45.638;13.764;2023-11-19T04:26:43;19.00;46.10
75738;DHT22;64356;45.638;13.764;2023-11-19T04:29:13;19.00;46.10
75738;DHT22;64356;45.638;13.764;2023-11-19T04:31:40;19.00;46.20
75738;DHT22;64356;45.638;13.764;2023-11-19T04:34:06;19.00;46.20
75738;DHT22;64356;45.638;13.764;2023-11-19T04:36:32;19.00;46.30
75738;DHT22;64356;45.638;13.764;2023-11-19T04:38:58;19.00;46.40
75738;DHT22;64356;45.638;13.764;2023-11-19T04:41:25;19.00;46.40
75738;DHT22;64356;45.638;13.764;2023-11-19T04:43:50;19.00;46.40
75738;DHT22;64356;45.638;13.764;2023-11-19T04:46:16;19.00;46.50
75738;DHT22;64356;45.638;13.764;2023-11-19T04:48:41;19.00;46.50
75738;DHT22;64356;45.638;13.764;2023-11-19T04:51:07;19.00;46.60
75738;DHT22;64356;45.638;13.764;2023-11-19T04:53:34;19.00;46.60
75738;DHT22;64356;45.638;13.764;2023-11-19T04:56:00;19.00;46.60
75738;DHT22;64356;45.638;13.764;2023-11-19T04:58:25;19.00;46.60
75738;DHT22;64356;45.638;13.764;2023-11-19T05:00:54;19.00;46.60
75738;DHT22;64356;45.638;13.764;2023-11-19T05:03:19;19.00;46.60
75738;DHT22;64356;45.638;13.764;2023-11-19T05:05:45;19.00;46.60
75738;DHT22;64356;45.638;13.764;2023-11-19T05:08:10;19.00;46.60
75738;DHT22;64356;45.638;13.764;2023-11-19T05:10:36;19.00;46.80
75738;DHT22;64356;45.638;13.764;2023-11-19T05:13:02;19.00;46.80
75738;DHT22;64356;45.638;13.764;2023-11-19T05:15:27;19.00;46.90
75738;DHT22;64356;45.638;13.764;2023-11-19T05:17:53;19.00;46.90
75738;DHT22;64356;45.638;13.764;2023-11-19T05:20:19;18.90;46.90
75738;DHT22;64356;45.638;13.764;2023-11-19T05:22:44;19.00;47.00
75738;DHT22;64356;45.638;13.764;2023-11-19T05:25:11;18.90;47.10
75738;DHT22;64356;45.638;13.764;2023-11-19T05:27:37;18.90;47.20
75738;DHT22;64356;45.638;13.764;2023-11-19T05:30:04;18.90;47.20
75738;DHT22;64356;45.638;13.764;2023-11-19T05:32:32;19.00;47.30
75738;DHT22;64356;45.638;13.764;2023-11-19T05:34:57;19.00;47.40
75738;DHT22;64356;45.638;13.764;2023-11-19T05:37:23;19.00;47.50
75738;DHT22;64356;45.638;13.764;2023-11-19T05:39:48;18.90;47.50
75738;DHT22;64356;45.638;13.764;2023-11-19T05:42:14;18.90;48.00
75738;DHT22;64356;45.638;13.764;2023-11-19T05:44:40;19.00;47.60
75738;DHT22;64356;45.638;13.764;2023-11-19T05:47:05;19.00;47.80
75738;DHT22;64356;45.638;13.764;2023-11-19T05:49:32;18.90;47.80
75738;DHT22;64356;45.638;13.764;2023-11-19T05:51:58;19.00;47.80
75738;DHT22;64356;45.638;13.764;2023-11-19T05:54:23;19.00;47.90
75738;DHT22;64356;45.638;13.764;2023-11-19T05:56:49;18.90;47.80
75738;DHT22;64356;45.638;13.764;2023-11-19T05:59:15;18.90;47.90
75738;DHT22;64356;45.638;13.764;2023-11-19T06:01:43;19.00;48.00
75738;DHT22;64356;45.638;13.764;2023-11-19T06:04:09;19.00;48.00
75738;DHT22;64356;45.638;13.764;2023-11-19T06:06:35;19.00;48.00
75738;DHT22;64356;45.638;13.764;2023-11-19T06:09:01;18.90;47.90
75738;DHT22;64356;45.638;13.764;2023-11-19T06:11:27;18.90;47.90
75738;DHT22;64356;45.638;13.764;2023-11-19T06:13:53;19.00;48.00
75738;DHT22;64356;45.638;13.764;2023-11-19T06:16:19;19.00;48.00
75738;DHT22;64356;45.638;13.764;2023-11-19T06:18:44;18.90;48.00
75738;DHT22;64356;45.638;13.764;2023-11-19T06:21:10;18.90;48.00
75738;DHT22;64356;45.638;13.764;2023-11-19T06:23:36;18.90;48.10
75738;DHT22;64356;45.638;13.764;2023-11-19T06:26:02;18.90;48.20
75738;DHT22;64356;45.638;13.764;2023-11-19T06:28:28;18.90;48.20
75738;DHT22;64356;45.638;13.764;2023-11-19T06:30:53;18.90;48.30
75738;DHT22;64356;45.638;13.764;2023-11-19T06:33:19;18.90;48.30
75738;DHT22;64356;45.638;13.764;2023-11-19T06:35:45;18.90;48.40
75738;DHT22;64356;45.638;13.764;2023-11-19T06:38:10;19.00;48.50
75738;DHT22;64356;45.638;13.764;2023-11-19T06:40:36;18.90;48.50
75738;DHT22;64356;45.638;13.764;2023-11-19T06:43:01;19.00;48.60
75738;DHT22;64356;45.638;13.764;2023-11-19T06:45:33;19.00;48.60
75738;DHT22;64356;45.638;13.764;2023-11-19T06:48:02;19.00;48.60
75738;DHT22;64356;45.638;13.764;2023-11-19T06:50:28;18.90;48.70
75738;DHT22;64356;45.638;13.764;2023-11-19T06:52:54;18.90;48.80
75738;DHT22;64356;45.638;13.764;2023-11-19T06:55:20;18.90;48.80
75738;DHT22;64356;45.638;13.764;2023-11-19T06:57:45;18.90;48.90
75738;DHT22;64356;45.638;13.764;2023-11-19T07:00:11;18.90;49.10
75738;DHT22;64356;45.638;13.764;2023-11-19T07:02:37;18.90;49.10
75738;DHT22;64356;45.638;13.764;2023-11-19T07:05:02;18.90;49.10
75738;DHT22;64356;45.638;13.764;2023-11-19T07:07:30;18.90;49.20
75738;DHT22;64356;45.638;13.764;2023-11-19T07:09:55;18.90;49.20
75738;DHT22;64356;45.638;13.764;2023-11-19T07:12:21;18.90;49.20
75738;DHT22;64356;45.638;13.764;2023-11-19T07:14:47;18.90;49.20
75738;DHT22;64356;45.638;13.764;2023-11-19T07:17:12;19.00;49.30
75738;DHT22;64356;45.638;13.764;2023-11-19T07:19:38;19.00;49.30
75738;DHT22;64356;45.638;13.764;2023-11-19T07:22:04;19.00;49.40
75738;DHT22;64356;45.638;13.764;2023-11-19T07:24:29;18.90;49.40
75738;DHT22;64356;45.638;13.764;2023-11-19T07:26:55;18.90;49.40
75738;DHT22;64356;45.638;13.764;2023-11-19T07:29:20;19.00;49.40
75738;DHT22;64356;45.638;13.764;2023-11-19T07:31:49;18.90;49.40
75738;DHT22;64356;45.638;13.764;2023-11-19T07:34:14;18.90;49.40
75738;DHT22;64356;45.638;13.764;2023-11-19T07:36:40;18.90;49.40
75738;DHT22;64356;45.638;13.764;2023-11-19T07:39:06;18.90;49.50
75738;DHT22;64356;45.638;13.764;2023-11-19T07:41:32;19.00;49.60
75738;DHT22;64356;45.638;13.764;2023-11-19T07:43:57;19.00;49.60
75738;DHT22;64356;45.638;13.764;2023-11-19T07:46:23;19.00;49.60
75738;DHT22;64356;45.638;13.764;2023-11-19T07:48:50;18.90;49.50
75738;DHT22;64356;45.638;13.764;2023-11-19T07:51:16;18.90;49.50
75738;DHT22;64356;45.638;13.764;2023-11-19T07:53:41;18.90;49.50
75738;DHT22;64356;45.638;13.764;2023-11-19T07:56:07;18.90;49.50
75738;DHT22;64356;45.638;13.764;2023-11-19T07:58:33;18.90;49.50
75738;DHT22;64356;45.638;13.764;2023-11-19T08:00:59;19.00;49.60
75738;DHT22;64356;45.638;13.764;2023-11-19T08:03:24;18.90;49.50
75738;DHT22;64356;45.638;13.764;2023-11-19T08:05:50;18.90;49.60
75738;DHT22;64356;45.638;13.764;2023-11-19T08:08:16;18.90;49.60
75738;DHT22;64356;45.638;13.764;2023-11-19T08:10:42;18.90;49.60
75738;DHT22;64356;45.638;13.764;2023-11-19T08:13:08;18.90;49.70
75738;DHT22;64356;45.638;13.764;2023-11-19T08:15:34;19.00;49.80
75738;DHT22;64356;45.638;13.764;2023-11-19T08:17:59;18.90;49.80
75738;DHT22;64356;45.638;13.764;2023-11-19T08:20:25;18.90;49.80
75738;DHT22;64356;45.638;13.764;2023-11-19T08:22:51;18.90;49.70
75738;DHT22;64356;45.638;13.764;2023-11-19T08:25:16;19.00;49.80
75738;DHT22;64356;45.638;13.764;2023-11-19T08:27:42;19.00;49.90
75738;DHT22;64356;45.638;13.764;2023-11-19T08:30:08;19.00;49.90
75738;DHT22;64356;45.638;13.764;2023-11-19T08:32:34;19.00;49.90
75738;DHT22;64356;45.638;13.764;2023-11-19T08:34:59;19.00;49.90
75738;DHT22;64356;45.638;13.764;2023-11-19T08:37:25;19.00;50.00
75738;DHT22;64356;45.638;13.764;2023-11-19T08:39:50;19.00;50.00
75738;DHT22;64356;45.638;13.764;2023-11-19T08:42:16;19.00;50.00
75738;DHT22;64356;45.638;13.764;2023-11-19T08:44:42;19.00;50.10
75738;DHT22;64356;45.638;13.764;2023-11-19T08:47:09;19.00;50.10
75738;DHT22;64356;45.638;13.764;2023-11-19T08:49:35;19.10;50.20
75738;DHT22;64356;45.638;13.764;2023-11-19T08:52:00;19.10;50.20
75738;DHT22;64356;45.638;13.764;2023-11-19T08:54:26;19.10;50.20
75738;DHT22;64356;45.638;13.764;2023-11-19T08:56:52;19.10;50.30
75738;DHT22;64356;45.638;13.764;2023-11-19T08:59:17;19.10;50.30
75738;DHT22;64356;45.638;13.764;2023-11-19T09:01:44;19.10;50.30
75738;DHT22;64356;45.638;13.764;2023-11-19T09:04:09;19.10;50.40
75738;DHT22;64356;45.638;13.764;2023-11-19T09:06:36;19.10;50.40
75738;DHT22;64356;45.638;13.764;2023-11-19T09:09:01;19.10;50.30
75738;DHT22;64356;45.638;13.764;2023-11-19T09:11:31;19.10;50.30
75738;DHT22;64356;45.638;13.764;2023-11-19T09:13:57;19.10;50.30
75738;DHT22;64356;45.638;13.764;2023-11-19T09:16:22;19.10;50.20
75738;DHT22;64356;45.638;13.764;2023-11-19T09:18:48;19.10;50.10
75738;DHT22;64356;45.638;13.764;2023-11-19T09:21:13;19.20;50.10
75738;DHT22;64356;45.638;13.764;2023-11-19T09:23:39;19.20;50.10
75738;DHT22;64356;45.638;13.764;2023-11-19T09:26:05;19.20;50.00
75738;DHT22;64356;45.638;13.764;2023-11-19T09:28:31;19.20;50.10
75738;DHT22;64356;45.638;13.764;2023-11-19T09:30:57;19.20;50.10
75738;DHT22;64356;45.638;13.764;2023-11-19T09:33:24;19.30;50.20
75738;DHT22;64356;45.638;13.764;2023-11-19T09:35:50;19.30;50.20
75738;DHT22;64356;45.638;13.764;2023-11-19T09:38:16;19.30;50.30
75738;DHT22;64356;45.638;13.764;2023-11-19T09:40:42;19.30;50.30
75738;DHT22;64356;45.638;13.764;2023-11-19T09:43:07;19.30;50.40
75738;DHT22;64356;45.638;13.764;2023-11-19T09:45:37;19.20;50.40
75738;DHT22;64356;45.638;13.764;2023-11-19T09:48:06;19.20;50.50
75738;DHT22;64356;45.638;13.764;2023-11-19T09:50:33;19.20;50.60
75738;DHT22;64356;45.638;13.764;2023-11-19T09:52:59;19.20;50.80
75738;DHT22;64356;45.638;13.764;2023-11-19T09:55:24;19.20;50.90
75738;DHT22;64356;45.638;13.764;2023-11-19T09:57:50;19.20;50.90
75738;DHT22;64356;45.638;13.764;2023-11-19T10:00:16;19.20;50.90
75738;DHT22;64356;45.638;13.764;2023-11-19T10:02:44;19.20;51.00
75738;DHT22;64356;45.638;13.764;2023-11-19T10:05:11;19.20;51.00
75738;DHT22;64356;45.638;13.764;2023-11-19T10:07:38;19.20;51.10
75738;DHT22;64356;45.638;13.764;2023-11-19T10:10:03;19.10;51.00
75738;DHT22;64356;45.638;13.764;2023-11-19T10:12:29;19.10;51.10
75738;DHT22;64356;45.638;13.764;2023-11-19T10:14:56;19.10;51.20
75738;DHT22;64356;45.638;13.764;2023-11-19T10:17:22;19.10;51.30
75738;DHT22;64356;45.638;13.764;2023-11-19T10:19:54;19.10;51.40
75738;DHT22;64356;45.638;13.764;2023-11-19T10:22:20;19.10;51.40
75738;DHT22;64356;45.638;13.764;2023-11-19T10:24:47;19.10;51.50
75738;DHT22;64356;45.638;13.764;2023-11-19T10:27:13;19.10;51.50
75738;DHT22;64356;45.638;13.764;2023-11-19T10:29:40;19.10;51.60
75738;DHT22;64356;45.638;13.764;2023-11-19T10:32:05;19.10;51.60
75738;DHT22;64356;45.638;13.764;2023-11-19T10:34:31;19.10;51.70
75738;DHT22;64356;45.638;13.764;2023-11-19T10:36:57;19.10;51.70
75738;DHT22;64356;45.638;13.764;2023-11-19T10:39:22;19.20;51.80
75738;DHT22;64356;45.638;13.764;2023-11-19T10:41:49;19.20;51.90
75738;DHT22;64356;45.638;13.764;2023-11-19T10:44:34;19.20;51.80
75738;DHT22;64356;45.638;13.764;2023-11-19T10:47:05;19.20;51.80
75738;DHT22;64356;45.638;13.764;2023-11-19T10:49:31;19.20;51.80
75738;DHT22;64356;45.638;13.764;2023-11-19T10:51:56;19.20;51.90
75738;DHT22;64356;45.638;13.764;2023-11-19T10:54:22;19.20;51.90
75738;DHT22;64356;45.638;13.764;2023-11-19T10:56:51;19.20;52.00
75738;DHT22;64356;45.638;13.764;2023-11-19T10:59:18;19.20;52.00
75738;DHT22;64356;45.638;13.764;2023-11-19T11:01:47;19.20;52.00
75738;DHT22;64356;45.638;13.764;2023-11-19T11:04:13;19.30;52.00
75738;DHT22;64356;45.638;13.764;2023-11-19T11:06:40;19.30;52.00
75738;DHT22;64356;45.638;13.764;2023-11-19T11:09:06;19.30;52.00
75738;DHT22;64356;45.638;13.764;2023-11-19T11:11:37;19.30;52.00
75738;DHT22;64356;45.638;13.764;2023-11-19T11:14:03;19.30;52.00
75738;DHT22;64356;45.638;13.764;2023-11-19T11:16:30;19.30;52.00
75738;DHT22;64356;45.638;13.764;2023-11-19T11:18:57;19.30;52.00
75738;DHT22;64356;45.638;13.764;2023-11-19T11:21:24;19.30;52.00
75738;DHT22;64356;45.638;13.764;2023-11-19T11:26:42;19.40;52.00
75738;DHT22;64356;45.638;13.764;2023-11-19T11:29:14;19.40;52.00
75738;DHT22;64356;45.638;13.764;2023-11-19T11:39:35;19.60;51.40
75738;DHT22;64356;45.638;13.764;2023-11-19T11:42:44;19.80;51.20
75738;DHT22;64356;45.638;13.764;2023-11-19T11:45:09;19.80;50.90
75738;DHT22;64356;45.638;13.764;2023-11-19T11:50:12;19.90;50.50
75738;DHT22;64356;45.638;13.764;2023-11-19T11:57:56;20.20;50.10
75738;DHT22;64356;45.638;13.764;2023-11-19T12:02:56;20.30;49.50
75738;DHT22;64356;45.638;13.764;2023-11-19T12:05:22;20.40;49.50
75738;DHT22;64356;45.638;13.764;2023-11-19T12:07:59;20.50;49.40
75738;DHT22;64356;45.638;13.764;2023-11-19T12:10:26;20.50;49.30
75738;DHT22;64356;45.638;13.764;2023-11-19T12:12:58;20.60;49.60
75738;DHT22;64356;45.638;13.764;2023-11-19T12:15:23;20.60;49.20
75738;DHT22;64356;45.638;13.764;2023-11-19T12:17:51;20.60;49.20
75738;DHT22;64356;45.638;13.764;2023-11-19T12:20:23;20.60;49.10
75738;DHT22;64356;45.638;13.764;2023-11-19T12:22:49;20.70;48.90
75738;DHT22;64356;45.638;13.764;2023-11-19T12:25:16;20.70;48.80
75738;DHT22;64356;45.638;13.764;2023-11-19T12:27:43;20.70;49.10
75738;DHT22;64356;45.638;13.764;2023-11-19T12:30:09;20.70;49.00
75738;DHT22;64356;45.638;13.764;2023-11-19T12:32:38;20.70;48.80
75738;DHT22;64356;45.638;13.764;2023-11-19T12:35:04;20.70;48.80
75738;DHT22;64356;45.638;13.764;2023-11-19T12:37:30;20.60;48.90
75738;DHT22;64356;45.638;13.764;2023-11-19T12:39:57;20.60;49.10
75738;DHT22;64356;45.638;13.764;2023-11-19T12:42:34;20.70;48.90
75738;DHT22;64356;45.638;13.764;2023-11-19T12:45:00;20.70;48.80
75738;DHT22;64356;45.638;13.764;2023-11-19T12:47:25;20.70;48.70
75738;DHT22;64356;45.638;13.764;2023-11-19T12:49:57;20.70;49.30
75738;DHT22;64356;45.638;13.764;2023-11-19T12:52:23;20.60;48.80
75738;DHT22;64356;45.638;13.764;2023-11-19T12:54:49;20.60;49.10
75738;DHT22;64356;45.638;13.764;2023-11-19T12:57:14;20.60;49.10
75738;DHT22;64356;45.638;13.764;2023-11-19T12:59:40;20.60;49.20
75738;DHT22;64356;45.638;13.764;2023-11-19T13:02:06;20.60;49.40
75738;DHT22;64356;45.638;13.764;2023-11-19T13:04:32;20.60;49.40
75738;DHT22;64356;45.638;13.764;2023-11-19T13:07:01;20.60;49.40
75738;DHT22;64356;45.638;13.764;2023-11-19T13:09:29;20.60;49.40
75738;DHT22;64356;45.638;13.764;2023-11-19T13:11:55;20.60;49.50
75738;DHT22;64356;45.638;13.764;2023-11-19T13:14:22;20.60;49.40
75738;DHT22;64356;45.638;13.764;2023-11-19T13:16:48;20.60;49.40
75738;DHT22;64356;45.638;13.764;2023-11-19T13:19:14;20.60;49.50
75738;DHT22;64356;45.638;13.764;2023-11-19T13:21:41;20.60;49.50
75738;DHT22;64356;45.638;13.764;2023-11-19T13:24:07;20.60;49.40
75738;DHT22;64356;45.638;13.764;2023-11-19T13:26:33;20.60;49.60
75738;DHT22;64356;45.638;13.764;2023-11-19T13:28:58;20.60;49.70
75738;DHT22;64356;45.638;13.764;2023-11-19T13:31:24;20.60;49.70
75738;DHT22;64356;45.638;13.764;2023-11-19T13:33:50;20.50;49.70
75738;DHT22;64356;45.638;13.764;2023-11-19T13:36:16;20.50;50.00
75738;DHT22;64356;45.638;13.764;2023-11-19T13:38:42;20.50;50.10
75738;DHT22;64356;45.638;13.764;2023-11-19T13:41:09;20.40;50.10
75738;DHT22;64356;45.638;13.764;2023-11-19T13:43:36;20.40;50.20
75738;DHT22;64356;45.638;13.764;2023-11-19T13:46:02;20.30;50.30
75738;DHT22;64356;45.638;13.764;2023-11-19T13:48:27;20.30;50.50
75738;DHT22;64356;45.638;13.764;2023-11-19T13:50:57;20.30;50.70
75738;DHT22;64356;45.638;13.764;2023-11-19T13:53:22;20.20;50.70
75738;DHT22;64356;45.638;13.764;2023-11-19T13:55:50;20.20;50.90
75738;DHT22;64356;45.638;13.764;2023-11-19T13:58:16;20.20;50.90
75738;DHT22;64356;45.638;13.764;2023-11-19T14:00:42;20.10;50.80
75738;DHT22;64356;45.638;13.764;2023-11-19T14:03:08;20.10;50.80
75738;DHT22;64356;45.638;13.764;2023-11-19T14:05:35;20.10;50.80
75738;DHT22;64356;45.638;13.764;2023-11-19T14:08:01;20.10;50.80
75738;DHT22;64356;45.638;13.764;2023-11-19T14:10:26;20.10;50.70
75738;DHT22;64356;45.638;13.764;2023-11-19T14:12:52;20.10;50.70
75738;DHT22;64356;45.638;13.764;2023-11-19T14:15:18;20.10;50.70
75738;DHT22;64356;45.638;13.764;2023-11-19T14:17:43;20.10;50.60
75738;DHT22;64356;45.638;13.764;2023-11-19T14:20:09;20.10;50.60
75738;DHT22;64356;45.638;13.764;2023-11-19T14:22:41;20.10;50.60
75738;DHT22;64356;45.638;13.764;2023-11-19T14:25:08;20.00;50.60
75738;DHT22;64356;45.638;13.764;2023-11-19T14:27:36;20.00;50.70
75738;DHT22;64356;45.638;13.764;2023-11-19T14:30:02;20.00;50.70
75738;DHT22;64356;45.638;13.764;2023-11-19T14:32:28;19.90;50.50
75738;DHT22;64356;45.638;13.764;2023-11-19T14:34:53;19.90;50.40
75738;DHT22;64356;45.638;13.764;2023-11-19T14:37:19;19.90;50.50
75738;DHT22;64356;45.638;13.764;2023-11-19T14:39:44;19.90;50.60
75738;DHT22;64356;45.638;13.764;2023-11-19T14:42:11;19.90;50.50
75738;DHT22;64356;45.638;13.764;2023-11-19T14:44:37;19.80;50.50
75738;DHT22;64356;45.638;13.764;2023-11-19T14:47:02;19.80;50.60
75738;DHT22;64356;45.638;13.764;2023-11-19T14:49:28;19.80;50.60
75738;DHT22;64356;45.638;13.764;2023-11-19T14:51:53;19.70;50.60
75738;DHT22;64356;45.638;13.764;2023-11-19T14:54:19;19.70;50.60
75738;DHT22;64356;45.638;13.764;2023-11-19T14:56:44;19.70;50.80
75738;DHT22;64356;45.638;13.764;2023-11-19T14:59:10;19.70;50.80
75738;DHT22;64356;45.638;13.764;2023-11-19T15:01:36;19.70;50.80
75738;DHT22;64356;45.638;13.764;2023-11-19T15:04:01;19.70;50.80
75738;DHT22;64356;45.638;13.764;2023-11-19T15:06:27;19.70;50.90
75738;DHT22;64356;45.638;13.764;2023-11-19T15:08:53;19.70;50.90
75738;DHT22;64356;45.638;13.764;2023-11-19T15:11:18;19.60;50.70
75738;DHT22;64356;45.638;13.764;2023-11-19T15:13:44;19.60;50.70
75738;DHT22;64356;45.638;13.764;2023-11-19T15:16:09;19.60;50.70
75738;DHT22;64356;45.638;13.764;2023-11-19T15:18:39;19.60;50.80
75738;DHT22;64356;45.638;13.764;2023-11-19T15:21:05;19.60;50.80
75738;DHT22;64356;45.638;13.764;2023-11-19T15:23:31;19.60;50.80
75738;DHT22;64356;45.638;13.764;2023-11-19T15:25:56;19.60;50.80
75738;DHT22;64356;45.638;13.764;2023-11-19T15:28:22;19.50;50.70
75738;DHT22;64356;45.638;13.764;2023-11-19T15:30:47;19.50;50.70